Tikaboo Peak, Nevada Weather observations

Data are for 10 minute period ending at time listed.
 Day   Time   Solar   Ave.   Ave.  Ave.  Vector  Max.   Baro.   Total    
  of    of     Rad.   Air    Rel.  Wind   Wind   Wind  Press.  Precip.   
Year   Day            Temp.  Hum.  Speed  Dir.   Gust                    
2014   (PST)  Kw/m2    F      %     mph   deg.    mph    mb.     in.     
-------------------------------------------------------------------------
 209   21:30   0.00   59.8    74    8.2   312    10.3   769.9    0.00 
 209   21:40   0.00   59.9    73    7.2   303     9.6   770.0    0.00 
 209   21:50   0.00   60.1    73    5.2   310     6.7   770.0    0.00 
 209   22:00   0.00   60.1    72    3.2   318     5.5   770.0    0.00 
 209   22:10   0.00   60.0    72    0.6   195     2.7   770.0    0.00 
 209   22:20   0.00   60.7    70    2.4   170     3.8   769.8    0.00 
 209   22:30   0.00   60.9    70    2.9   215     4.0   769.7    0.00 
 209   22:40   0.00   60.9    70    2.6   235     4.5   769.6    0.00 
 209   22:50   0.00   60.4    71    3.4   108     7.2   769.6    0.00 
 209   23:00   0.00   59.8    73    3.4   165     6.1   769.6    0.00 
 209   23:10   0.00   59.8    73    0.6   109     2.0   769.6    0.00 
 209   23:20   0.00   59.8    73    0.7   286     1.8   769.6    0.00 
 209   23:30   0.00   60.0    73    0.2   272     1.2   769.6    0.00 
 209   23:40   0.00   60.0    73    1.3   333     2.7   769.5    0.00 
 209   23:50   0.00   60.0    73    1.2   337     3.1   769.5    0.00 
 210    0:00   0.00   60.0    73    1.2   328     3.0   769.5    0.00 
 210    0:10   0.00   59.9    73    2.2    79     3.9   769.4    0.00 
 210    0:20   0.00   59.4    73    7.8    88    11.8   769.3    0.00 
 210    0:30   0.00   59.2    72    8.4    92    11.5   769.3    0.00 
 210    0:40   0.00   59.4    73    3.8    86     6.5   769.3    0.00 
 210    0:50   0.00   59.5    73    3.7   107     6.2   769.3    0.00 
 210    1:00   0.00   59.5    72    5.7   105     8.0   769.2    0.00 
 210    1:10   0.00   59.4    73    4.1   115     5.6   769.3    0.00 
 210    1:20   0.00   59.5    73    5.1   124     6.4   769.2    0.00 
 210    1:30   0.00   59.5    73    4.7   132     6.0   769.1    0.00 
 210    1:40   0.00   59.4    73    3.1   174     4.2   769.0    0.00 
 210    1:50   0.00   59.5    73    4.2   162     5.1   769.0    0.00 
 210    2:00   0.00   59.3    73    3.4   152     4.7   768.9    0.00 
 210    2:10   0.00   59.0    74    3.1   148     4.2   768.8    0.00 
 210    2:20   0.00   59.0    74    2.7   153     3.9   768.8    0.00 
 210    2:30   0.00   59.0    74    4.5   133     5.5   768.8    0.00 
 210    2:40   0.00   59.1    74    5.0   138     5.8   768.8    0.00 
 210    2:50   0.00   59.0    74    5.0   150     5.8   768.8    0.00 
 210    3:00   0.00   59.0    73    4.6   152     6.1   768.8    0.00 
 210    3:10   0.00   59.0    73    5.9   156     6.9   768.7    0.00 
 210    3:20   0.00   59.0    73    5.3   154     6.1   768.7    0.00 
 210    3:30   0.00   59.1    71    5.1   154     6.3   768.7    0.00 
 210    3:40   0.00   59.1    72    4.4   156     6.1   768.7    0.00 
 210    3:50   0.00   59.2    72    5.6   154     6.5   768.7    0.00 
 210    4:00   0.00   59.3    72    5.3   166     7.0   768.7    0.00 
 210    4:10   0.00   59.3    71    4.8   183     8.3   768.6    0.00 
 210    4:20   0.00   59.2    70    7.4   146    10.2   768.5    0.00 
 210    4:30   0.00   59.1    71    8.3   144    10.8   768.5    0.00 
 210    4:40   0.00   59.1    71    6.9   155    11.0   768.4    0.00 
 210    4:50   0.00   59.3    71    3.3   183     9.3   768.5    0.00 
 210    5:00   0.01   59.4    72    2.1   294     4.2   768.5    0.00 
 210    5:10   0.02   58.8    76    4.9   296     8.3   768.5    0.00 
 210    5:20   0.05   57.6    80    4.0   250     9.3   768.5    0.00 
 210    5:30   0.02   55.3    91    8.6   297    18.3   768.6    0.00 
 210    5:40   0.04   53.8    95    3.4    18    15.4   768.8    0.00 
 210    5:50   0.07   53.3    96    9.2   334    15.5   768.7    0.00 
 210    6:00   0.07   53.6    97   10.2   329    13.2   768.7    0.00 
 210    6:10   0.01   53.3    97   10.6   319    15.6   768.8    0.00 
 210    6:20   0.00   53.3    97    7.9   340    14.5   769.1    0.09 
 210    6:30   0.00   53.5    98   10.5   328    13.7   769.3    0.02 
 210    6:40   0.00   53.7    98    7.4   294    11.7   769.3    0.17 
 210    6:50   0.01   54.1    98   10.3   215    13.4   769.2    0.08 
 210    7:00   0.01   54.7    98    7.0   270    12.8   769.3    0.04 
 210    7:10   0.01   54.5    98    7.5   334    10.2   769.3    0.14 
 210    7:20   0.00   54.1    98    6.8   294    11.0   769.5    0.08 
 210    7:30   0.01   53.7    98   11.4   308    14.9   769.7    0.07 
 210    7:40   0.01   53.6    98    6.3   309    12.1   769.4    0.02 
 210    7:50   0.02   54.1    98   10.0   242    14.6   769.4    0.06 
 210    8:00   0.04   54.2    98   11.8   222    15.4   769.5    0.01 
 210    8:10   0.08   54.9    98   11.2   238    15.8   769.6    0.00 
 210    8:20   0.13   55.5    97    7.6   240    11.4   769.4    0.00 
 210    8:30   0.24   56.1    96    6.8   227     9.3   769.5    0.00 
 210    8:40   0.38   57.1    94    6.8   226     8.7   769.4    0.00 
 210    8:50   0.43   58.3    92    8.2   208    10.5   769.6    0.00 
 210    9:00   0.39   58.2    91    9.0   202    12.8   769.6    0.01 
 210    9:10   0.31   57.7    91    7.1   198    10.4   769.7    0.00 
 210    9:20   0.27   57.3    91    7.3   194     9.8   769.7    0.00 
 210    9:30   0.88   59.7    88    8.2   206    11.2   769.7    0.00 
 210    9:40   0.92   63.0    81    6.2   201    10.5   769.7    0.00 
 210    9:50   0.57   62.6    78    5.5   205     9.4   769.6    0.00 
 210   10:00   0.59   62.9    80    3.2   214     8.3   769.6    0.00 
 210   10:10   0.92   65.4    76    4.5   236     9.3   769.6    0.00 
 210   10:20   0.95   66.6    72    3.3   235     7.2   769.5    0.00 
 210   10:30   0.96   66.3    73    4.3   255     7.6   769.5    0.00 
 210   10:40   100.00   66.6    75    1.8   284     5.2   769.6    0.00 
 210   10:50   0.81   67.0    77    1.8   281     4.7   769.5    0.00 
 210   11:00   0.58   66.5    74    2.1   302     7.2   769.5    0.00 
 210   11:10   0.58   66.0    75    2.7   295     5.7   769.4    0.00 
 210   11:20   0.56   66.2    77    2.3   307     5.6   769.4    0.00 
 210   11:30   0.65   66.0    75    2.4   304     5.0   769.4    0.00 
 210   11:40   0.72   67.1    71    1.3   309     6.9   769.3    0.00 
 210   11:50   0.93   68.0    67    2.8   304     8.3   769.3    0.00 
 210   12:00   0.91   68.5    66    2.1   341     8.0   769.2    0.00 
 210   12:10   0.80   69.3    63    1.5   343     7.6   769.2    0.00 
 210   12:20   1.00   69.9    60    2.7   306     7.2   769.2    0.00 
 210   12:30   0.78   69.4    58    1.8   342     8.9   769.0    0.00 
 210   12:40   0.95   68.5    60    2.7   323     8.8   769.1    0.00 
 210   12:50   1.01   70.6    57    3.0   323     8.4   769.0    0.00 
 210   13:00   0.94   71.9    54    3.7   289     8.8   769.0    0.00 
 210   13:10   0.80   72.0    53    2.4   320     8.3   768.9    0.00 
 210   13:20   0.77   71.1    54    2.0   338     7.0   768.8    0.00 
 210   13:30   0.61   71.7    55    3.1   317     8.8   768.8    0.00 
 210   13:40   0.45   71.0    56    2.2   338     8.1   768.8    0.00 
 210   13:50   0.43   70.2    56    1.6   305     6.9   768.9    0.00 
 210   14:00   0.75   71.0    56    2.5   311     6.6   768.9    0.00 
 210   14:10   0.91   73.8    51    2.3   322     8.7   768.8    0.00 
 210   14:20   0.67   73.2    53    1.4   329     6.5   768.6    0.00 
 210   14:30   0.49   73.2    52    2.0   283     7.7   768.5    0.00 
 210   14:40   0.49   71.3    55    2.1   318     6.9   768.5    0.00 
 210   14:50   0.26   71.2    54    2.2   300     6.1   768.4    0.00 
 210   15:00   0.59   70.2    54    1.2     8     4.7   768.3    0.00 
 210   15:10   0.41   69.3    55    2.4   322     8.4   768.2    0.00 
 210   15:20   0.59   70.9    54    1.3   261     5.1   768.2    0.00 
 210   15:30   0.42   72.3    51    1.6   308     7.4   768.2    0.00 
 210   15:40   0.50   71.7    51    4.1   298     8.6   768.2    0.00 
 210   15:50   0.52   72.4    48    2.2   314     7.3   768.2    0.00 
 210   16:00   0.45   71.9    48    1.6   340     7.7   768.1    0.00 
 210   16:10   0.38   71.4    50    2.4   310     7.5   768.0    0.00 
 210   16:20   0.37   70.8    52    2.0   310     5.5   768.0    0.00 
 210   16:30   0.31   70.1    53    2.8   317     8.2   767.9    0.00 
 210   16:40   0.24   69.6    54    3.2   310     9.6   767.8    0.00 
 210   16:50   0.27   69.5    54    1.4   283     7.9   767.8    0.00 
 210   17:00   0.24   69.6    52    0.9   342     7.9   767.8    0.00 
 210   17:10   0.23   69.5    52    2.4   305     8.1   767.6    0.00 
 210   17:20   0.18   68.3    54    2.0   334     8.8   767.7    0.00 
 210   17:30   0.16   66.6    58    1.3   292     9.6   767.7    0.00 
 210   17:40   0.12   65.7    59    1.2   294     7.9   767.7    0.00 
 210   17:50   0.10   65.2    60    1.3   348     8.0   767.7    0.00 
 210   18:00   0.07   64.5    60    2.2   351     9.1   767.7    0.00 
 210   18:10   0.06   64.1    60    1.5   324     7.3   767.7    0.00 
 210   18:20   0.04   63.8    61    1.3   327     5.6   767.7    0.00 
 210   18:30   0.02   63.7    61    0.5   134     1.7   767.8    0.00 
 210   18:40   0.01   63.5    61    1.0   332     5.0   767.8    0.00 
 210   18:50   0.01   63.2    62    4.0   334     7.7   767.9    0.00 
 210   19:00   0.00   63.2    62    3.6   327     7.5   767.9    0.00 
 210   19:10   0.00   63.3    62    3.4   324     7.0   768.0    0.00 
 210   19:20   0.00   63.3    62    3.2   324     5.8   768.0    0.00 
 210   19:30   0.00   63.4    61    4.0   324     6.9   768.0    0.00 
 210   19:40   0.00   63.2    61    2.9   328     6.5   768.1    0.00 
 210   19:50   0.00   63.0    61    1.2   304     5.5   768.2    0.00 
 210   20:00   0.00   62.9    61    1.4   328     5.2   768.3    0.00 
 210   20:10   0.00   62.9    61    1.3   314     6.7   768.3    0.00 
 210   20:20   0.00   63.0    61    2.7   325     8.3   768.4    0.00 
 210   20:30   0.00   62.9    62    6.2   332     9.9   768.5    0.00 
 210   20:40   0.00   62.9    62    5.7   337    10.4   768.7    0.00 
 210   20:50   0.00   62.9    62    8.8   340    14.3   768.6    0.00 
 210   21:00   0.00   63.5    60    9.5   339    13.5   768.6    0.00 
 210   21:10   0.00   63.6    59    9.4   332    12.9   768.6    0.00 
 210   21:20   0.00   63.9    58    8.6   352    14.0   768.7    0.00 

Return to Tikaboo Peak graphs page.


Western Regional Climate Center,wrcc@dri.edu